Time,TemperatureF,DewpointF,PressureIn,WindDirection,WindDirectionDegrees,WindSpeedMPH,WindSpeedGustMPH,Humidity,HourlyPrecipIn,Conditions,Clouds,dailyrainin,SoftwareType,DateUTC
2013-01-24 00:03:00,12.0,2.0,30.22,North,0,0.0,0.0,63,0.00,,,0.00,,2013-01-24 05:03:00,
2013-01-24 00:12:00,12.0,2.0,30.22,North,0,0.0,0.0,63,0.00,,,0.00,,2013-01-24 05:12:00,
2013-01-24 00:22:00,12.0,2.0,30.21,North,0,0.0,0.0,63,0.00,,,0.00,,2013-01-24 05:22:00,
2013-01-24 00:33:00,12.0,2.0,30.20,North,0,0.0,0.0,64,0.00,,,0.00,,2013-01-24 05:33:00,
2013-01-24 00:42:00,12.0,2.0,30.20,North,0,0.0,0.0,64,0.00,,,0.00,,2013-01-24 05:42:00,
2013-01-24 00:53:00,12.0,4.0,30.18,North,0,0.0,0.0,70,0.00,,,0.00,,2013-01-24 05:53:00,
2013-01-24 01:02:00,12.0,4.0,30.18,North,0,0.0,0.0,69,0.00,,,0.00,,2013-01-24 06:02:00,
2013-01-24 01:12:00,12.0,4.0,30.18,North,0,0.0,0.0,69,0.00,,,0.00,,2013-01-24 06:12:00,
2013-01-24 01:22:00,12.0,4.0,30.18,North,0,0.0,0.0,68,0.00,,,0.00,,2013-01-24 06:22:00,
2013-01-24 01:32:00,12.0,3.0,30.18,North,0,0.0,0.0,67,0.00,,,0.00,,2013-01-24 06:32:00,
2013-01-24 01:42:00,12.0,3.0,30.18,North,0,0.0,0.0,67,0.00,,,0.00,,2013-01-24 06:42:00,
2013-01-24 01:52:00,12.0,4.0,30.17,North,0,0.0,0.0,70,0.00,,,0.00,,2013-01-24 06:52:00,
2013-01-24 02:03:00,12.0,5.0,30.17,North,0,0.0,0.0,72,0.00,,,0.00,,2013-01-24 07:03:00,
2013-01-24 02:12:00,12.0,5.0,30.17,North,0,0.0,0.0,72,0.00,,,0.00,,2013-01-24 07:12:00,
2013-01-24 02:23:00,12.0,4.0,30.16,North,0,0.0,0.0,71,0.00,,,0.00,,2013-01-24 07:23:00,
2013-01-24 02:33:00,12.0,5.0,30.17,North,0,0.0,0.0,72,0.00,,,0.00,,2013-01-24 07:33:00,
2013-01-24 02:43:00,12.0,5.0,30.17,North,0,0.0,0.0,72,0.00,,,0.00,,2013-01-24 07:43:00,
2013-01-24 02:53:00,13.0,5.0,30.17,North,0,0.0,0.0,71,0.00,,,0.00,,2013-01-24 07:53:00,
2013-01-24 03:02:00,13.0,6.0,30.17,North,0,0.0,0.0,72,0.00,,,0.00,,2013-01-24 08:02:00,
2013-01-24 03:12:00,13.0,6.0,30.17,North,0,0.0,0.0,72,0.00,,,0.00,,2013-01-24 08:12:00,
2013-01-24 03:23:00,13.0,5.0,30.17,North,0,0.0,3.0,70,0.00,,,0.00,,2013-01-24 08:23:00,
2013-01-24 03:33:00,14.0,6.0,30.17,North,0,0.0,0.0,71,0.00,,,0.00,,2013-01-24 08:33:00,
2013-01-24 03:43:00,14.0,6.0,30.17,North,0,0.0,0.0,71,0.00,,,0.00,,2013-01-24 08:43:00,
2013-01-24 03:53:00,13.0,7.0,30.17,North,0,0.0,2.0,75,0.00,,,0.00,,2013-01-24 08:53:00,
2013-01-24 04:03:00,13.0,7.0,30.17,North,0,0.0,0.0,77,0.00,,,0.00,,2013-01-24 09:03:00,
2013-01-24 04:13:00,13.0,7.0,30.17,North,0,0.0,0.0,77,0.00,,,0.00,,2013-01-24 09:13:00,
2013-01-24 04:23:00,13.0,8.0,30.17,North,0,0.0,0.0,79,0.00,,,0.00,,2013-01-24 09:23:00,
2013-01-24 04:33:00,13.0,8.0,30.17,North,0,0.0,1.0,80,0.00,,,0.00,,2013-01-24 09:33:00,
2013-01-24 04:43:00,13.0,8.0,30.17,North,0,0.0,1.0,80,0.00,,,0.00,,2013-01-24 09:43:00,
2013-01-24 04:53:00,13.0,8.0,30.17,North,0,0.0,2.0,81,0.00,,,0.00,,2013-01-24 09:53:00,
2013-01-24 05:03:00,13.0,9.0,30.17,North,0,0.0,1.0,82,0.00,,,0.00,,2013-01-24 10:03:00,
2013-01-24 05:12:00,13.0,9.0,30.17,North,0,0.0,1.0,82,0.00,,,0.00,,2013-01-24 10:12:00,
2013-01-24 05:23:00,13.0,9.0,30.18,North,0,0.0,2.0,83,0.00,,,0.00,,2013-01-24 10:23:00,
2013-01-24 05:33:00,13.0,9.0,30.18,North,0,0.0,2.0,84,0.00,,,0.00,,2013-01-24 10:33:00,
2013-01-24 05:43:00,13.0,9.0,30.18,North,0,0.0,2.0,84,0.00,,,0.00,,2013-01-24 10:43:00,
2013-01-24 05:53:00,13.0,9.0,30.19,WNW,289,1.0,2.0,85,0.00,,,0.00,,2013-01-24 10:53:00,
2013-01-24 06:03:00,13.0,9.0,30.20,North,0,0.0,0.0,85,0.00,,,0.00,,2013-01-24 11:03:00,
2013-01-24 06:12:00,13.0,9.0,30.20,North,0,0.0,0.0,85,0.00,,,0.00,,2013-01-24 11:12:00,
2013-01-24 06:23:00,13.0,9.0,30.20,NW,324,2.0,5.0,85,0.00,,,0.00,,2013-01-24 11:23:00,
2013-01-24 06:33:00,13.0,9.0,30.21,NW,321,2.0,6.0,85,0.00,,,0.00,,2013-01-24 11:33:00,
2013-01-24 06:43:00,13.0,9.0,30.21,NW,321,2.0,6.0,85,0.00,,,0.00,,2013-01-24 11:43:00,
2013-01-24 06:53:00,13.0,9.0,30.22,NW,318,4.0,10.0,83,0.00,,,0.00,,2013-01-24 11:53:00,
2013-01-24 07:03:00,13.0,9.0,30.22,WNW,294,2.0,5.0,82,0.00,,,0.00,,2013-01-24 12:03:00,
2013-01-24 07:12:00,13.0,9.0,30.22,WNW,294,2.0,5.0,82,0.00,,,0.00,,2013-01-24 12:12:00,
2013-01-24 07:23:00,13.0,8.0,30.23,North,0,0.0,5.0,80,0.00,,,0.00,,2013-01-24 12:23:00,
2013-01-24 07:33:00,13.0,8.0,30.23,NW,321,1.0,3.0,80,0.00,,,0.00,,2013-01-24 12:33:00,
2013-01-24 07:43:00,13.0,8.0,30.23,NW,321,1.0,3.0,80,0.00,,,0.00,,2013-01-24 12:43:00,
2013-01-24 07:53:00,13.0,8.0,30.24,NW,319,1.0,5.0,80,0.00,,,0.00,,2013-01-24 12:53:00,
2013-01-24 08:03:00,13.0,8.0,30.24,NW,319,2.0,6.0,80,0.00,,,0.00,,2013-01-24 13:03:00,
2013-01-24 08:13:00,13.0,8.0,30.24,NW,319,2.0,6.0,80,0.00,,,0.00,,2013-01-24 13:13:00,
2013-01-24 08:23:00,13.0,8.0,30.25,NW,316,4.0,10.0,80,0.00,,,0.00,,2013-01-24 13:23:00,
2013-01-24 08:33:00,13.0,8.0,30.26,NW,324,1.0,7.0,80,0.00,,,0.00,,2013-01-24 13:33:00,
2013-01-24 08:43:00,13.0,8.0,30.26,NW,324,1.0,7.0,80,0.00,,,0.00,,2013-01-24 13:43:00,
2013-01-24 08:53:00,14.0,8.0,30.27,NW,322,2.0,9.0,78,0.00,,,0.00,,2013-01-24 13:53:00,
2013-01-24 09:03:00,14.0,8.0,30.27,NW,312,4.0,11.0,77,0.00,,,0.00,,2013-01-24 14:03:00,
2013-01-24 09:12:00,14.0,8.0,30.27,NW,312,4.0,11.0,77,0.00,,,0.00,,2013-01-24 14:12:00,
2013-01-24 09:23:00,15.0,9.0,30.28,NW,312,4.0,10.0,76,0.00,,,0.00,,2013-01-24 14:23:00,
2013-01-24 09:33:00,15.0,9.0,30.29,NW,322,4.0,9.0,75,0.00,,,0.00,,2013-01-24 14:33:00,
2013-01-24 09:43:00,15.0,9.0,30.29,NW,322,4.0,9.0,75,0.00,,,0.00,,2013-01-24 14:43:00,
2013-01-24 09:54:00,16.0,9.0,30.30,NW,326,8.0,13.0,73,0.00,,,0.00,,2013-01-24 14:54:00,
2013-01-24 10:03:00,16.0,9.0,30.30,NW,316,7.0,15.0,73,0.00,,,0.00,,2013-01-24 15:03:00,
2013-01-24 10:12:00,16.0,9.0,30.30,NW,316,7.0,15.0,73,0.00,,,0.00,,2013-01-24 15:12:00,
2013-01-24 10:23:00,17.0,9.0,30.32,NW,317,4.0,15.0,69,0.00,,,0.00,,2013-01-24 15:23:00,
2013-01-24 10:33:00,17.0,9.0,30.32,NW,317,4.0,15.0,69,0.00,,,0.00,,2013-01-24 15:33:00,
2013-01-24 10:43:00,17.0,9.0,30.32,NW,312,6.0,16.0,69,0.00,,,0.00,,2013-01-24 15:43:00,
2013-01-24 10:53:00,17.0,8.0,30.34,NW,313,6.0,13.0,67,0.00,,,0.00,,2013-01-24 15:53:00,
2013-01-24 11:03:00,17.0,8.0,30.34,NW,321,9.0,15.0,68,0.00,,,0.00,,2013-01-24 16:03:00,
2013-01-24 11:12:00,17.0,8.0,30.34,NW,321,9.0,15.0,68,0.00,,,0.00,,2013-01-24 16:12:00,
2013-01-24 11:23:00,18.0,9.0,30.34,NW,321,8.0,20.0,67,0.00,,,0.00,,2013-01-24 16:23:00,
2013-01-24 11:33:00,18.0,9.0,30.34,NW,311,9.0,21.0,66,0.00,,,0.00,,2013-01-24 16:33:00,
2013-01-24 11:43:00,18.0,9.0,30.34,NW,311,9.0,21.0,66,0.00,,,0.00,,2013-01-24 16:43:00,
2013-01-24 12:02:00,18.0,8.0,30.35,NW,313,5.0,13.0,65,0.00,,,0.00,,2013-01-24 17:02:00,
2013-01-24 12:12:00,18.0,8.0,30.35,NW,313,5.0,13.0,65,0.00,,,0.00,,2013-01-24 17:12:00,
2013-01-24 12:22:00,19.0,9.0,30.35,NW,318,7.0,20.0,63,0.00,,,0.00,,2013-01-24 17:22:00,
2013-01-24 12:32:00,19.0,9.0,30.35,NW,317,12.0,18.0,63,0.00,,,0.00,,2013-01-24 17:32:00,
2013-01-24 12:42:00,19.0,9.0,30.35,NW,317,12.0,18.0,63,0.00,,,0.00,,2013-01-24 17:42:00,
2013-01-24 12:52:00,19.0,9.0,30.35,NW,312,9.0,20.0,64,0.00,,,0.00,,2013-01-24 17:52:00,
2013-01-24 13:02:00,20.0,9.0,30.35,NW,313,13.0,21.0,62,0.00,,,0.00,,2013-01-24 18:02:00,
2013-01-24 13:12:00,20.0,8.0,30.35,NW,312,10.0,24.0,59,0.00,,,0.00,,2013-01-24 18:12:00,
2013-01-24 13:22:00,20.0,8.0,30.35,NW,312,10.0,24.0,59,0.00,,,0.00,,2013-01-24 18:22:00,
2013-01-24 13:33:00,20.0,7.0,30.35,NW,310,13.0,20.0,57,0.00,,,0.00,,2013-01-24 18:33:00,
2013-01-24 13:42:00,20.0,7.0,30.35,NW,310,13.0,20.0,57,0.00,,,0.00,,2013-01-24 18:42:00,
2013-01-24 13:53:00,21.0,7.0,30.35,NW,321,12.0,19.0,53,0.00,,,0.00,,2013-01-24 18:53:00,
2013-01-24 14:02:00,22.0,7.0,30.35,NW,320,17.0,23.0,52,0.00,,,0.00,,2013-01-24 19:02:00,
2013-01-24 14:12:00,22.0,6.0,30.36,NW,319,10.0,20.0,50,0.00,,,0.00,,2013-01-24 19:12:00,
2013-01-24 14:22:00,22.0,6.0,30.36,NW,319,10.0,20.0,50,0.00,,,0.00,,2013-01-24 19:22:00,
2013-01-24 14:33:00,22.0,6.0,30.36,NW,323,13.0,20.0,49,0.00,,,0.00,,2013-01-24 19:33:00,
2013-01-24 14:42:00,22.0,4.0,30.37,NW,318,9.0,23.0,46,0.00,,,0.00,,2013-01-24 19:42:00,
2013-01-24 14:53:00,22.0,4.0,30.37,NW,318,9.0,23.0,46,0.00,,,0.00,,2013-01-24 19:53:00,
2013-01-24 15:02:00,22.0,4.0,30.37,NW,318,11.0,18.0,45,0.00,,,0.00,,2013-01-24 20:02:00,
2013-01-24 15:11:00,22.0,3.0,30.38,NW,323,12.0,27.0,43,0.00,,,0.00,,2013-01-24 20:11:00,
2013-01-24 15:22:00,22.0,3.0,30.38,NW,323,12.0,27.0,43,0.00,,,0.00,,2013-01-24 20:22:00,
2013-01-24 15:32:00,22.0,2.0,30.38,NW,321,15.0,25.0,42,0.00,,,0.00,,2013-01-24 20:32:00,
2013-01-24 15:42:00,22.0,3.0,30.40,NW,315,11.0,15.0,44,0.00,,,0.00,,2013-01-24 20:42:00,
2013-01-24 15:52:00,22.0,3.0,30.40,NW,315,11.0,15.0,44,0.00,,,0.00,,2013-01-24 20:52:00,
2013-01-24 16:02:00,22.0,3.0,30.40,NW,320,8.0,24.0,43,0.00,,,0.00,,2013-01-24 21:02:00,
2013-01-24 16:12:00,22.0,3.0,30.41,NW,324,13.0,21.0,43,0.00,,,0.00,,2013-01-24 21:12:00,
2013-01-24 16:22:00,22.0,3.0,30.41,NW,324,13.0,21.0,43,0.00,,,0.00,,2013-01-24 21:22:00,
2013-01-24 16:33:00,22.0,3.0,30.41,NW,324,9.0,18.0,43,0.00,,,0.00,,2013-01-24 21:33:00,
2013-01-24 16:43:00,22.0,3.0,30.41,NW,324,9.0,18.0,43,0.00,,,0.00,,2013-01-24 21:43:00,
2013-01-24 16:53:00,22.0,3.0,30.42,NW,317,7.0,17.0,44,0.00,,,0.00,,2013-01-24 21:53:00,
2013-01-24 17:03:00,22.0,3.0,30.42,NW,313,9.0,17.0,44,0.00,,,0.00,,2013-01-24 22:03:00,
2013-01-24 17:12:00,22.0,3.0,30.42,NW,313,9.0,17.0,44,0.00,,,0.00,,2013-01-24 22:12:00,
2013-01-24 17:22:00,22.0,4.0,30.43,NW,319,4.0,11.0,45,0.00,,,0.00,,2013-01-24 22:22:00,
2013-01-24 17:32:00,22.0,4.0,30.43,NW,314,5.0,18.0,45,0.00,,,0.00,,2013-01-24 22:32:00,
2013-01-24 17:42:00,22.0,4.0,30.43,NW,314,5.0,18.0,45,0.00,,,0.00,,2013-01-24 22:42:00,
2013-01-24 17:53:00,21.0,4.0,30.44,NW,319,9.0,13.0,46,0.00,,,0.00,,2013-01-24 22:53:00,
2013-01-24 18:03:00,21.0,4.0,30.45,NW,318,6.0,11.0,47,0.00,,,0.00,,2013-01-24 23:03:00,
2013-01-24 18:12:00,21.0,4.0,30.45,NW,318,6.0,11.0,47,0.00,,,0.00,,2013-01-24 23:12:00,
2013-01-24 18:22:00,21.0,4.0,30.45,NW,312,5.0,11.0,48,0.00,,,0.00,,2013-01-24 23:22:00,
2013-01-24 18:32:00,21.0,4.0,30.46,NW,314,6.0,11.0,48,0.00,,,0.00,,2013-01-24 23:32:00,
2013-01-24 18:42:00,21.0,4.0,30.46,NW,314,6.0,11.0,48,0.00,,,0.00,,2013-01-24 23:42:00,
2013-01-24 18:52:00,20.0,4.0,30.47,NW,311,2.0,6.0,49,0.00,,,0.00,,2013-01-24 23:52:00,
2013-01-24 19:02:00,20.0,4.0,30.47,NW,314,3.0,12.0,49,0.00,,,0.00,,2013-01-25 00:02:00,
2013-01-24 19:12:00,20.0,4.0,30.47,NW,314,3.0,12.0,49,0.00,,,0.00,,2013-01-25 00:12:00,
2013-01-24 19:22:00,20.0,4.0,30.48,NW,310,3.0,11.0,50,0.00,,,0.00,,2013-01-25 00:22:00,
2013-01-24 19:32:00,20.0,4.0,30.49,NW,306,2.0,6.0,50,0.00,,,0.00,,2013-01-25 00:32:00,
2013-01-24 19:42:00,20.0,4.0,30.49,NW,306,2.0,6.0,50,0.00,,,0.00,,2013-01-25 00:42:00,
2013-01-24 19:53:00,20.0,4.0,30.49,NW,312,3.0,11.0,50,0.00,,,0.00,,2013-01-25 00:53:00,
2013-01-24 20:02:00,20.0,5.0,30.50,NW,314,5.0,12.0,51,0.00,,,0.00,,2013-01-25 01:02:00,
2013-01-24 20:12:00,20.0,5.0,30.50,NW,312,6.0,11.0,51,0.00,,,0.00,,2013-01-25 01:12:00,
2013-01-24 20:22:00,20.0,5.0,30.50,NW,312,6.0,11.0,51,0.00,,,0.00,,2013-01-25 01:22:00,
2013-01-24 20:32:00,20.0,5.0,30.49,NW,311,4.0,11.0,52,0.00,,,0.00,,2013-01-25 01:32:00,
2013-01-24 20:42:00,20.0,5.0,30.49,NW,311,4.0,11.0,52,0.00,,,0.00,,2013-01-25 01:42:00,
2013-01-24 20:52:00,19.0,4.0,30.48,NW,310,3.0,13.0,52,0.00,,,0.00,,2013-01-25 01:52:00,
2013-01-24 21:02:00,19.0,5.0,30.49,NW,311,2.0,8.0,53,0.00,,,0.00,,2013-01-25 02:02:00,
2013-01-24 21:11:00,19.0,5.0,30.49,NW,311,2.0,8.0,53,0.00,,,0.00,,2013-01-25 02:11:00,
2013-01-24 21:22:00,19.0,5.0,30.49,NW,313,4.0,7.0,54,0.00,,,0.00,,2013-01-25 02:22:00,
2013-01-24 21:32:00,19.0,5.0,30.50,NW,308,3.0,11.0,53,0.00,,,0.00,,2013-01-25 02:32:00,
2013-01-24 21:42:00,19.0,5.0,30.50,NW,308,3.0,12.0,54,0.00,,,0.00,,2013-01-25 02:42:00,
2013-01-24 21:53:00,19.0,5.0,30.50,NW,308,3.0,12.0,54,0.00,,,0.00,,2013-01-25 02:53:00,
2013-01-24 22:02:00,19.0,5.0,30.50,NW,312,3.0,6.0,54,0.00,,,0.00,,2013-01-25 03:02:00,
2013-01-24 22:12:00,18.0,4.0,30.50,NW,308,2.0,6.0,54,0.00,,,0.00,,2013-01-25 03:12:00,
2013-01-24 22:22:00,18.0,4.0,30.50,NW,308,2.0,6.0,54,0.00,,,0.00,,2013-01-25 03:22:00,
2013-01-24 22:33:00,18.0,4.0,30.49,NW,312,2.0,6.0,54,0.00,,,0.00,,2013-01-25 03:33:00,
2013-01-24 22:42:00,18.0,4.0,30.49,NW,312,2.0,6.0,54,0.00,,,0.00,,2013-01-25 03:42:00,
2013-01-24 22:53:00,18.0,5.0,30.50,NW,312,7.0,11.0,56,0.00,,,0.00,,2013-01-25 03:53:00,
2013-01-24 23:02:00,18.0,5.0,30.50,NW,312,7.0,11.0,56,0.00,,,0.00,,2013-01-25 04:02:00,
2013-01-24 23:12:00,18.0,5.0,30.50,NW,311,6.0,12.0,56,0.00,,,0.00,,2013-01-25 04:12:00,
2013-01-24 23:22:00,18.0,5.0,30.50,NW,311,6.0,12.0,56,0.00,,,0.00,,2013-01-25 04:22:00,
2013-01-24 23:32:00,18.0,5.0,30.50,NW,308,1.0,4.0,56,0.00,,,0.00,,2013-01-25 04:32:00,
2013-01-24 23:42:00,18.0,5.0,30.50,NW,308,1.0,4.0,56,0.00,,,0.00,,2013-01-25 04:42:00,
2013-01-24 23:52:00,17.0,4.0,30.50,NW,318,4.0,12.0,57,0.00,,,0.00,,2013-01-25 04:52:00,